createdAt,value
2022-11-29T00:01:52.271Z,50.30
2022-11-29T00:04:55.800Z,44.70
2022-11-29T00:07:59.214Z,39.00
2022-11-29T00:11:06.249Z,56.70
2022-11-29T00:14:11.813Z,61.80
2022-11-29T00:17:15.311Z,85.10
2022-11-29T00:20:19.037Z,38.50
2022-11-29T00:23:22.517Z,32.90
2022-11-29T00:26:25.860Z,70.20
2022-11-29T00:29:30.329Z,51.40
2022-11-29T00:32:33.887Z,54.50
2022-11-29T00:35:37.489Z,44.90
2022-11-29T00:38:41.753Z,41.60
2022-11-29T00:41:45.294Z,50.50
2022-11-29T00:44:48.651Z,50.50
2022-11-29T00:47:52.038Z,41.40
2022-11-29T00:50:55.555Z,45.60
2022-11-29T00:53:58.935Z,54.70
2022-11-29T00:57:02.389Z,48.30
2022-11-29T01:00:08.691Z,47.70
2022-11-29T01:06:16.706Z,49.50
2022-11-29T01:09:20.408Z,42.40
2022-11-29T01:12:24.114Z,42.90
2022-11-29T01:15:27.713Z,44.40
2022-11-29T01:18:31.937Z,46.70
2022-11-29T01:21:35.581Z,55.80
2022-11-29T01:24:38.932Z,52.80
2022-11-29T01:27:42.871Z,51.50
2022-11-29T01:30:46.484Z,52.20
2022-11-29T01:33:52.389Z,53.30
2022-11-29T01:36:55.706Z,53.30
2022-11-29T01:39:59.204Z,54.40
2022-11-29T01:43:02.712Z,53.20
2022-11-29T01:46:06.260Z,55.60
2022-11-29T01:49:14.166Z,52.80
2022-11-29T01:52:21.204Z,54.10
2022-11-29T01:55:25.039Z,52.50
2022-11-29T01:58:29.739Z,53.00
2022-11-29T02:01:34.136Z,54.10
2022-11-29T02:04:39.445Z,52.10
2022-11-29T02:07:46.538Z,52.60
2022-11-29T02:11:11.417Z,53.50
2022-11-29T02:14:36.401Z,54.70
2022-11-29T02:17:55.594Z,53.80
2022-11-29T02:21:20.437Z,54.60
2022-11-29T02:24:52.031Z,55.50
2022-11-29T02:28:30.099Z,54.20
2022-11-29T02:32:14.709Z,48.40
2022-11-29T02:35:35.600Z,47.10
2022-11-29T02:39:11.470Z,48.00
2022-11-29T02:42:56.629Z,47.70
2022-11-29T02:46:15.853Z,50.50
2022-11-29T02:49:31.811Z,56.40
2022-11-29T02:52:45.337Z,56.10
2022-11-29T02:55:56.904Z,52.70
2022-11-29T02:59:05.506Z,53.70
2022-11-29T03:02:22.739Z,56.20
2022-11-29T03:05:35.616Z,53.90
2022-11-29T03:08:46.271Z,51.90
2022-11-29T03:11:56.952Z,49.60
2022-11-29T03:15:12.943Z,45.60
2022-11-29T03:18:28.505Z,43.00
2022-11-29T03:21:43.702Z,40.10
2022-11-29T03:24:54.985Z,44.70
2022-11-29T03:28:04.797Z,44.70
2022-11-29T03:31:16.211Z,45.20
2022-11-29T03:34:30.260Z,42.00
2022-11-29T03:37:43.192Z,42.00
2022-11-29T03:40:54.920Z,42.60
2022-11-29T03:44:06.079Z,43.40
2022-11-29T03:47:13.942Z,41.60
2022-11-29T03:50:23.589Z,41.10
2022-11-29T03:53:36.028Z,39.70
2022-11-29T03:56:41.462Z,39.80
2022-11-29T03:59:56.035Z,39.20
2022-11-29T04:03:32.919Z,37.00
2022-11-29T04:06:59.030Z,36.20
2022-11-29T04:10:17.499Z,35.00
2022-11-29T04:13:45.989Z,37.30
2022-11-29T04:17:24.778Z,37.00
2022-11-29T04:20:48.802Z,35.00
2022-11-29T04:24:19.130Z,33.50
2022-11-29T04:27:48.072Z,37.20
2022-11-29T04:31:02.229Z,33.50
2022-11-29T04:34:25.950Z,32.40
2022-11-29T04:37:58.766Z,33.40
2022-11-29T04:41:25.345Z,33.50
2022-11-29T04:44:45.762Z,33.10
2022-11-29T04:48:02.710Z,36.70
2022-11-29T04:51:18.795Z,35.50
2022-11-29T04:57:37.063Z,34.20
2022-11-29T05:00:50.395Z,37.30
2022-11-29T05:04:01.269Z,36.90
2022-11-29T05:07:11.120Z,38.40
2022-11-29T05:10:24.860Z,36.50
2022-11-29T05:13:34.303Z,35.20
2022-11-29T05:17:04.301Z,33.10
2022-11-29T05:20:22.225Z,33.20
2022-11-29T05:23:54.809Z,32.90
2022-11-29T05:27:05.107Z,31.90
2022-11-29T05:30:14.669Z,31.50
2022-11-29T05:33:37.073Z,33.70
2022-11-29T05:36:50.112Z,32.90
2022-11-29T05:40:14.817Z,32.60
2022-11-29T05:43:37.775Z,32.40
2022-11-29T05:46:53.362Z,31.20
2022-11-29T05:50:05.439Z,33.10
2022-11-29T05:53:21.149Z,32.70
2022-11-29T05:56:36.836Z,33.50
2022-11-29T05:59:42.914Z,33.30
2022-11-29T06:02:57.331Z,36.50
2022-11-29T06:06:06.285Z,34.10
2022-11-29T06:09:16.852Z,36.70
2022-11-29T06:12:23.356Z,36.50
2022-11-29T06:15:48.086Z,37.50
2022-11-29T06:19:23.263Z,37.40
2022-11-29T06:22:49.910Z,40.00
2022-11-29T06:26:10.829Z,54.10
2022-11-29T06:29:29.572Z,53.90
2022-11-29T06:32:40.271Z,54.20
2022-11-29T06:35:48.239Z,59.90
2022-11-29T06:38:53.131Z,54.70
2022-11-29T06:41:56.874Z,44.50
2022-11-29T06:45:01.662Z,51.20
2022-11-29T06:48:10.225Z,41.70
2022-11-29T06:51:22.241Z,36.80
2022-11-29T06:54:38.759Z,31.90
2022-11-29T06:58:05.091Z,35.10
2022-11-29T07:01:22.785Z,41.80
2022-11-29T07:04:46.340Z,43.00
2022-11-29T07:07:52.545Z,39.20
2022-11-29T07:10:59.050Z,42.60
2022-11-29T07:14:03.784Z,43.80
2022-11-29T07:17:15.558Z,46.00
2022-11-29T07:20:27.357Z,47.50
2022-11-29T07:23:35.406Z,46.00
2022-11-29T07:26:46.253Z,47.10
2022-11-29T07:30:04.522Z,47.10
2022-11-29T07:33:16.894Z,51.90
2022-11-29T07:36:31.857Z,54.30
2022-11-29T07:39:47.756Z,49.40
2022-11-29T07:43:01.285Z,50.90
2022-11-29T07:46:04.895Z,49.80
2022-11-29T07:49:11.010Z,53.00
2022-11-29T07:52:16.405Z,54.40
2022-11-29T07:55:22.581Z,54.10
2022-11-29T07:58:25.988Z,53.40
2022-11-29T08:01:29.428Z,54.70
2022-11-29T08:04:32.871Z,53.20
2022-11-29T08:07:37.614Z,53.60
2022-11-29T08:10:41.098Z,49.80
2022-11-29T08:13:44.599Z,50.90
2022-11-29T08:16:48.083Z,49.40
2022-11-29T08:19:51.599Z,49.80
2022-11-29T08:22:56.318Z,51.30
2022-11-29T08:26:01.099Z,55.70
2022-11-29T08:29:04.564Z,54.70
2022-11-29T08:32:08.475Z,50.80
2022-11-29T08:35:11.977Z,46.70
2022-11-29T08:38:15.505Z,41.90
2022-11-29T08:41:19.229Z,45.90
2022-11-29T08:44:22.685Z,47.20
2022-11-29T08:47:37.967Z,57.20
2022-11-29T08:50:41.363Z,58.50
2022-11-29T08:53:45.972Z,56.10
2022-11-29T08:57:30.939Z,58.80
2022-11-29T09:00:15.124Z,58.70
2022-11-29T09:03:37.862Z,62.70
2022-11-29T09:06:43.808Z,64.90
2022-11-29T09:09:47.881Z,61.20
2022-11-29T09:12:51.228Z,58.70
2022-11-29T09:15:54.627Z,57.00
2022-11-29T09:18:58.163Z,58.20
2022-11-29T09:22:02.361Z,56.30
2022-11-29T09:25:07.473Z,56.90
2022-11-29T09:28:12.045Z,58.50
2022-11-29T09:31:16.465Z,55.40
2022-11-29T09:34:19.813Z,58.70
2022-11-29T09:37:23.238Z,50.90
2022-11-29T09:40:33.730Z,48.10
2022-11-29T09:43:48.187Z,47.40
2022-11-29T09:47:03.850Z,44.90
2022-11-29T09:50:22.712Z,43.10
2022-11-29T09:53:50.274Z,41.70
2022-11-29T09:56:55.575Z,41.10
2022-11-29T10:00:03.015Z,41.50
2022-11-29T10:03:16.652Z,40.50
2022-11-29T10:06:23.667Z,41.30
2022-11-29T10:09:33.949Z,42.10
2022-11-29T10:12:44.225Z,47.40
2022-11-29T10:15:53.529Z,48.50
2022-11-29T10:19:04.863Z,47.80
2022-11-29T10:22:16.910Z,50.30
2022-11-29T10:25:25.165Z,47.80
2022-11-29T10:28:32.021Z,48.90
2022-11-29T10:31:39.500Z,47.80
2022-11-29T10:34:44.062Z,45.50
2022-11-29T10:38:07.804Z,43.90
2022-11-29T10:41:18.988Z,53.00
2022-11-29T10:44:23.062Z,55.00
2022-11-29T10:47:26.811Z,58.00
2022-11-29T10:50:33.361Z,53.20
2022-11-29T10:53:38.106Z,45.50
2022-11-29T10:56:43.767Z,35.40
2022-11-29T11:00:00.792Z,35.70
2022-11-29T11:03:17.684Z,37.60
2022-11-29T11:06:23.416Z,37.10
2022-11-29T11:09:33.618Z,36.10
2022-11-29T11:12:37.190Z,33.50
2022-11-29T11:15:40.680Z,33.40
2022-11-29T11:18:45.065Z,32.80
2022-11-29T11:21:48.681Z,32.20
2022-11-29T11:24:59.062Z,32.40
2022-11-29T11:28:17.514Z,31.40
2022-11-29T11:31:30.988Z,32.10
2022-11-29T11:34:35.985Z,32.60
2022-11-29T11:37:39.412Z,32.90
2022-11-29T11:40:43.222Z,33.60
2022-11-29T11:43:54.489Z,32.10
2022-11-29T11:46:59.153Z,31.80
2022-11-29T11:50:12.539Z,31.50
2022-11-29T11:53:24.207Z,32.20
2022-11-29T11:56:35.619Z,31.00
2022-11-29T11:59:39.325Z,31.60
2022-11-29T12:02:45.307Z,32.50
2022-11-29T12:05:52.160Z,32.20
2022-11-29T12:09:01.209Z,29.50
2022-11-29T12:12:14.053Z,31.20
2022-11-29T12:15:20.833Z,31.30
2022-11-29T12:18:34.227Z,31.20
2022-11-29T12:21:43.125Z,30.30
2022-11-29T12:24:57.095Z,32.20
2022-11-29T12:28:00.474Z,29.30
2022-11-29T12:31:17.651Z,31.10
2022-11-29T12:34:31.182Z,30.70
2022-11-29T12:37:43.081Z,30.80
2022-11-29T12:40:54.851Z,31.20
2022-11-29T12:44:10.678Z,27.30
2022-11-29T12:47:39.992Z,32.40
2022-11-29T12:50:58.607Z,31.40
2022-11-29T12:54:21.018Z,36.20
2022-11-29T12:57:36.667Z,32.40
2022-11-29T13:00:49.455Z,32.10
2022-11-29T13:03:58.896Z,31.40
2022-11-29T13:07:11.612Z,30.70
2022-11-29T13:10:28.521Z,28.90
2022-11-29T13:13:39.653Z,30.80
2022-11-29T13:16:52.825Z,30.50
2022-11-29T13:20:03.404Z,28.80
2022-11-29T13:23:16.779Z,29.60
2022-11-29T13:26:22.678Z,32.20
2022-11-29T13:29:28.181Z,32.00
2022-11-29T13:32:35.993Z,28.90
2022-11-29T13:35:48.755Z,33.90
2022-11-29T13:39:04.141Z,31.90
2022-11-29T13:42:16.858Z,31.90
2022-11-29T13:45:23.929Z,33.50
2022-11-29T13:48:48.538Z,32.70
2022-11-29T13:52:05.419Z,43.90
2022-11-29T13:55:28.416Z,35.90
2022-11-29T13:58:36.110Z,34.70
2022-11-29T14:01:48.271Z,46.40
2022-11-29T14:04:52.965Z,34.80
2022-11-29T14:08:34.109Z,32.90
2022-11-29T14:11:59.442Z,35.00
2022-11-29T14:15:15.129Z,34.10
2022-11-29T14:18:48.225Z,34.80
2022-11-29T14:22:30.024Z,38.90
2022-11-29T14:25:51.225Z,36.40
2022-11-29T14:28:55.558Z,36.40
2022-11-29T14:31:59.798Z,36.30
2022-11-29T14:35:15.569Z,35.20
2022-11-29T14:38:30.954Z,37.10
2022-11-29T14:41:49.554Z,37.00
2022-11-29T14:44:55.521Z,35.70
2022-11-29T14:47:59.696Z,43.20
2022-11-29T14:51:11.572Z,44.70
2022-11-29T14:54:18.979Z,43.60
2022-11-29T14:57:53.850Z,37.40
2022-11-29T15:01:10.727Z,39.10
2022-11-29T15:04:15.550Z,35.50
2022-11-29T15:07:27.593Z,36.40
2022-11-29T15:10:35.869Z,37.10
2022-11-29T15:13:48.893Z,32.70
2022-11-29T15:17:17.227Z,33.90
2022-11-29T15:20:39.525Z,38.30
2022-11-29T15:23:44.366Z,53.90
2022-11-29T15:26:57.653Z,45.10
2022-11-29T15:30:19.837Z,43.20
2022-11-29T15:33:25.073Z,36.90
2022-11-29T15:36:28.566Z,40.40
2022-11-29T15:39:34.122Z,60.70
2022-11-29T15:42:43.296Z,45.30
2022-11-29T15:45:51.401Z,39.30
2022-11-29T15:48:55.404Z,44.00
2022-11-29T15:52:05.047Z,37.50
2022-11-29T15:55:14.269Z,36.70
2022-11-29T15:58:19.196Z,36.00
2022-11-29T16:01:22.908Z,34.50
2022-11-29T16:04:27.069Z,36.60
2022-11-29T16:07:33.583Z,36.30
2022-11-29T16:10:42.891Z,37.20
2022-11-29T16:14:03.946Z,39.20
2022-11-29T16:17:08.415Z,42.30
2022-11-29T16:20:25.372Z,46.50
2022-11-29T16:23:34.948Z,50.50
2022-11-29T16:26:41.344Z,48.80
2022-11-29T16:32:53.709Z,46.50
2022-11-29T16:36:07.191Z,47.40
2022-11-29T16:39:20.473Z,47.40
2022-11-29T16:42:26.197Z,47.40
2022-11-29T16:45:34.733Z,43.90
2022-11-29T16:48:38.361Z,46.40
2022-11-29T16:51:47.797Z,46.80
2022-11-29T16:54:51.585Z,45.50
2022-11-29T16:57:55.005Z,47.50
2022-11-29T17:00:58.596Z,48.50
2022-11-29T17:04:02.337Z,46.20
2022-11-29T17:07:08.154Z,47.10
2022-11-29T17:10:15.975Z,46.50
2022-11-29T17:13:19.416Z,45.50
2022-11-29T17:16:23.938Z,48.40
2022-11-29T17:19:29.905Z,45.00
2022-11-29T17:22:33.461Z,44.00
2022-11-29T17:25:37.166Z,45.30
2022-11-29T17:28:41.994Z,45.10
2022-11-29T17:31:46.604Z,46.20
2022-11-29T17:34:50.128Z,44.70
2022-11-29T17:37:53.525Z,46.90
2022-11-29T17:40:57.029Z,45.20
2022-11-29T17:44:01.174Z,46.50
2022-11-29T17:47:04.754Z,45.20
2022-11-29T17:50:10.357Z,44.80
2022-11-29T17:53:13.797Z,45.10
2022-11-29T17:56:18.902Z,41.30
2022-11-29T17:59:22.340Z,40.50
2022-11-29T18:02:25.759Z,41.30
2022-11-29T18:05:34.312Z,45.00
2022-11-29T18:08:39.320Z,44.80
2022-11-29T18:11:48.693Z,45.90
2022-11-29T18:14:53.156Z,42.30
2022-11-29T18:17:56.657Z,36.10
2022-11-29T18:21:00.970Z,33.10
2022-11-29T18:24:06.273Z,32.90
2022-11-29T18:27:09.719Z,34.00
2022-11-29T18:30:14.569Z,35.20
2022-11-29T18:33:18.054Z,37.20
2022-11-29T18:36:23.202Z,37.60
2022-11-29T18:39:26.589Z,39.30
2022-11-29T18:42:30.027Z,41.10
2022-11-29T18:45:37.426Z,40.20
2022-11-29T18:48:41.650Z,40.70
2022-11-29T18:51:46.498Z,40.60
2022-11-29T18:54:50.038Z,42.50
2022-11-29T18:57:53.719Z,41.50
2022-11-29T19:01:03.998Z,37.90
2022-11-29T19:04:08.319Z,40.20
2022-11-29T19:07:11.606Z,40.50
2022-11-29T19:10:14.842Z,38.60
2022-11-29T19:13:18.418Z,36.90
2022-11-29T19:16:22.476Z,37.90
2022-11-29T19:19:26.339Z,39.00
2022-11-29T19:22:30.493Z,37.30
2022-11-29T19:25:35.741Z,38.10
2022-11-29T19:28:40.171Z,40.20
2022-11-29T19:31:44.022Z,38.40
2022-11-29T19:34:47.379Z,37.80
2022-11-29T19:37:50.985Z,36.20
2022-11-29T19:40:54.436Z,37.60
2022-11-29T19:43:59.006Z,36.80
2022-11-29T19:47:02.467Z,35.80
2022-11-29T19:50:08.297Z,34.20
2022-11-29T19:53:11.821Z,36.60
2022-11-29T19:56:16.733Z,37.00
2022-11-29T19:59:20.096Z,37.40
2022-11-29T20:02:23.683Z,32.70
2022-11-29T20:05:27.162Z,35.30
2022-11-29T20:08:31.014Z,36.20
2022-11-29T20:11:34.571Z,35.00
2022-11-29T20:14:38.071Z,43.40
2022-11-29T20:17:41.510Z,35.20
2022-11-29T20:20:44.869Z,33.20
2022-11-29T20:23:48.382Z,33.90
2022-11-29T20:26:51.858Z,34.40
2022-11-29T20:29:55.264Z,35.20
2022-11-29T20:32:59.649Z,33.50
2022-11-29T20:36:20.254Z,33.20
2022-11-29T20:39:31.786Z,32.40
2022-11-29T20:42:49.948Z,32.30
2022-11-29T20:45:54.323Z,31.80
2022-11-29T20:49:04.686Z,32.80
2022-11-29T20:52:19.108Z,33.40
2022-11-29T20:55:22.916Z,32.60
2022-11-29T20:58:26.663Z,33.00
2022-11-29T21:01:30.004Z,33.20
2022-11-29T21:04:33.485Z,33.50
2022-11-29T21:07:37.015Z,32.70
2022-11-29T21:10:40.593Z,29.10
2022-11-29T21:13:45.195Z,30.30
2022-11-29T21:16:49.418Z,32.00
2022-11-29T21:19:54.273Z,36.30
2022-11-29T21:23:04.938Z,29.50
2022-11-29T21:26:14.694Z,32.10
2022-11-29T21:29:20.247Z,30.20
2022-11-29T21:32:26.208Z,31.20
2022-11-29T21:35:29.627Z,30.90
2022-11-29T21:38:33.342Z,29.30
2022-11-29T21:41:37.096Z,29.90
2022-11-29T21:44:40.397Z,29.30
2022-11-29T21:47:44.524Z,29.00
2022-11-29T21:50:50.968Z,30.70
2022-11-29T21:53:54.330Z,29.40
2022-11-29T21:56:57.864Z,30.20
2022-11-29T22:00:01.401Z,29.30
2022-11-29T22:03:04.961Z,27.80
2022-11-29T22:06:10.642Z,30.00
2022-11-29T22:09:14.561Z,28.90
2022-11-29T22:12:33.900Z,29.10
2022-11-29T22:15:38.145Z,28.80
2022-11-29T22:18:41.872Z,29.20
2022-11-29T22:21:46.613Z,30.20
2022-11-29T22:24:50.275Z,29.40
2022-11-29T22:27:53.822Z,29.10
2022-11-29T22:31:03.764Z,28.70
2022-11-29T22:34:07.453Z,31.20
2022-11-29T22:37:11.876Z,27.80
2022-11-29T22:40:16.431Z,28.40
2022-11-29T22:43:19.795Z,27.00
2022-11-29T22:46:24.922Z,27.00
2022-11-29T22:49:29.398Z,26.80
2022-11-29T22:52:33.032Z,28.60
2022-11-29T22:55:36.302Z,28.70
2022-11-29T22:58:39.929Z,27.80
2022-11-29T23:01:43.798Z,27.10
2022-11-29T23:04:47.263Z,27.50
2022-11-29T23:07:55.112Z,28.10
2022-11-29T23:10:59.074Z,27.50
2022-11-29T23:14:02.442Z,27.20
2022-11-29T23:17:05.784Z,27.00
2022-11-29T23:20:11.277Z,25.60
2022-11-29T23:23:14.843Z,28.50
2022-11-29T23:26:20.447Z,26.00
2022-11-29T23:29:23.834Z,27.40
2022-11-29T23:32:27.274Z,28.20
2022-11-29T23:35:30.846Z,25.50
2022-11-29T23:38:34.596Z,27.60
2022-11-29T23:41:38.120Z,25.80
2022-11-29T23:44:41.597Z,25.90
2022-11-29T23:47:45.210Z,24.50
2022-11-29T23:50:48.606Z,23.40
2022-11-29T23:53:53.806Z,26.10
2022-11-29T23:56:57.229Z,27.20
